This is the latest recevied weather packets stored in our database for station/object N3WMC. If no packets are shown the sender has not sent any weather packets the latest 10 day(s).
| Time | Temp. | Humidity | Pressure | Rain* | Wind** | Luminosity | Snow |
|---|---|---|---|---|---|---|---|
| 1787963663 | 18.33° C | 82% | 1022 hPa | 0 mm | - | 0 W/m² | - |
| 1787963363 | 18.33° C | 82% | 1021.8 hPa | 0 mm | - | 0 W/m² | - |
| 1787963059 | 18.33° C | 81% | 1021.9 hPa | 0 mm | - | 0 W/m² | - |
| 1787962758 | 18.89° C | 80% | 1021.9 hPa | 0 mm | - | 0 W/m² | - |
| 1787962457 | 18.89° C | 80% | 1021.7 hPa | 0 mm | - | 0 W/m² | - |
| 1787962156 | 18.89° C | 80% | 1021.7 hPa | 0 mm | - | 1 W/m² | - |
| 1787961851 | 18.89° C | 80% | 1021.5 hPa | 0 mm | - | 1 W/m² | - |
| 1787961549 | 18.89° C | 80% | 1021.6 hPa | 0 mm | - | 3 W/m² | - |
| 1787961244 | 19.44° C | 79% | 1021.7 hPa | 0 mm | - | 4 W/m² | - |
| 1787960943 | 20° C | 78% | 1021.5 hPa | 0 mm | - | 7 W/m² | - |
| 1787960639 | 21.11° C | 75% | 1021.5 hPa | 0 mm | - | 10 W/m² | - |
| 1787960337 | 22.22° C | 71% | 1021.4 hPa | 0 mm | - | 12 W/m² | - |
| 1787960032 | 22.78° C | 69% | 1021.5 hPa | 0 mm | - | 15 W/m² | - |
| 1787959726 | 22.78° C | 66% | 1021.6 hPa | 0 mm | - | 18 W/m² | - |
| 1787959422 | 23.33° C | 63% | 1021.2 hPa | 0 mm | - | 20 W/m² | - |
| 1787959117 | 23.89° C | 61% | 1021.3 hPa | 0 mm | - | 23 W/m² | - |
| 1787958812 | 23.89° C | 60% | 1021.3 hPa | 0 mm | - | 25 W/m² | - |
| 1787958507 | 24.44° C | 61% | 1021.2 hPa | 0 mm | - | 28 W/m² | - |
| 1787958203 | 25° C | 56% | 1021.2 hPa | 0 mm | - | 31 W/m² | - |
| 1787957902 | 25° C | 56% | 1020.9 hPa | 0 mm | - | 34 W/m² | - |
| 1787957602 | 25° C | 53% | 1021.2 hPa | 0 mm | - | 37 W/m² | - |
| 1787957292 | 25° C | 55% | 1021 hPa | 0 mm | - | 40 W/m² | - |
| 1787956992 | 25° C | 54% | 1021.2 hPa | 0 mm | - | 44 W/m² | - |
| 1787956691 | 25° C | 52% | 1021.1 hPa | 0 mm | - | 51 W/m² | - |
| 1787956387 | 25° C | 51% | 1021 hPa | 0 mm | - | 57 W/m² | - |
* Rain latest hour (hover to see other rain measurements)
** Current wind speed in m/s (hover to see current wind gust speed)